Niagara, North Dakota
Current Conditions -  °F | °C
As of 10:58 AM on Friday 19 Dec 2014 (Local Time) from KRDR Reporting Station
Haze Haze  
Wind Chill: 16°   Ceiling: 300
Heat Index: 25°   Visibility: 2mi
Dew Point: 25°   Wind: 9mph
Humidity: 100%   Direction: 170°S
Pressure: 30.05"   Gusts: NA
Location:  48°N, 97.87°W
Report Text: KRDR 191658Z 17008KT 2SM BR OVC003 M04/M04 A3005 RMK AO2A SLP196 T10371037
Loading
Personal Weather Stations






























Interactive Weather Map New forecast layout! Learn more

10-Day Weather Forecast

Advertisements
Track Severe Weather on mobile